Time;durP1;ratioP1;P1;durP2;ratioP2;P2;SDS_P1;SDS_P2;PMS_P1;PMS_P2;Temp;Humidity;BMP_temperature;BMP_pressure;BME280_temperature;BME280_humidity;BME280_pressure;Samples;Min_cycle;Max_cycle;Signal;HPM_P1;HPM_P2
2022/03/31 00:01:08;;;;;;;15.07;6.65;;;;;;;14.62;52.84;98783.34;5361940;32;34981;-64
2022/03/31 00:04:10;;;;;;;19.53;7.47;;;;;;;14.35;53.43;98777.56;5377086;32;34024;-69
2022/03/31 00:07:12;;;;;;;14.87;7.13;;;;;;;13.65;56.35;98775.19;5359355;32;34113;-64
2022/03/31 00:10:19;;;;;;;19.40;7.77;;;;;;;14.31;54.09;98763.78;5369090;32;35432;-63
2022/03/31 00:13:23;;;;;;;18.30;7.03;;;;;;;14.40;54.09;98761.34;5371696;32;34885;-69
2022/03/31 00:16:25;;;;;;;20.67;7.57;;;;;;;13.55;57.01;98768.00;5344227;32;35538;-69
2022/03/31 00:19:27;;;;;;;16.97;8.13;;;;;;;14.31;54.59;98758.50;5373865;32;36680;-69
2022/03/31 00:22:30;;;;;;;21.00;8.73;;;;;;;14.17;54.44;98765.81;5358826;32;34363;-68
2022/03/31 00:25:32;;;;;;;20.70;8.30;;;;;;;13.88;55.39;98752.28;5377509;32;34359;-68
2022/03/31 00:28:34;;;;;;;18.97;7.00;;;;;;;14.21;54.24;98762.00;5362136;32;44735;-68
2022/03/31 00:31:38;;;;;;;15.67;7.57;;;;;;;13.92;54.50;98759.03;5365546;32;36488;-64
2022/03/31 00:34:40;;;;;;;;;;;;;;;13.57;55.80;98769.66;5373964;32;35454;-67
2022/03/31 00:37:44;;;;;;;15.17;7.30;;;;;;;14.12;53.92;98754.81;5361988;32;35752;-68
2022/03/31 00:40:46;;;;;;;16.80;7.47;;;;;;;13.89;54.27;98756.59;5352741;32;36419;-68
2022/03/31 00:43:48;;;;;;;29.57;9.40;;;;;;;13.37;55.72;98747.44;5363174;32;35014;-69
2022/03/31 00:46:52;;;;;;;16.33;7.90;;;;;;;13.80;54.42;98750.25;5374364;32;35308;-69
2022/03/31 00:49:54;;;;;;;17.50;7.83;;;;;;;13.90;53.71;98743.28;5347619;32;35131;-68
2022/03/31 00:52:56;;;;;;;20.03;7.63;;;;;;;14.51;52.19;98743.69;5363802;32;34588;-67
2022/03/31 00:56:19;;;;;;;19.93;7.43;;;;;;;14.24;52.47;98736.19;5368717;32;35207;-64
2022/03/31 00:59:21;;;;;;;18.40;7.50;;;;;;;14.14;52.97;98734.38;5363022;32;34974;-69
2022/03/31 01:02:32;;;;;;;17.03;8.03;;;;;;;14.06;53.15;98727.91;5375668;32;35513;-63
2022/03/31 01:05:38;;;;;;;18.83;8.00;;;;;;;14.11;52.99;98718.78;5361146;32;45077;-69
2022/03/31 01:08:40;;;;;;;19.67;8.17;;;;;;;14.11;52.98;98718.78;5353976;32;34743;-64
2022/03/31 01:11:42;;;;;;;18.93;7.23;;;;;;;13.89;53.54;98711.72;5370902;32;34966;-69
2022/03/31 01:14:44;;;;;;;18.47;7.47;;;;;;;13.42;54.72;98716.28;5348585;32;34745;-69
2022/03/31 01:17:48;;;;;;;25.00;8.67;;;;;;;14.26;52.52;98699.88;5373077;32;34108;-68
2022/03/31 01:20:51;;;;;;;18.27;7.50;;;;;;;14.16;52.55;98701.56;5360018;32;35406;-69
2022/03/31 01:23:54;;;;;;;16.70;6.53;;;;;;;13.91;53.37;98701.84;5373454;32;34650;-68
2022/03/31 01:26:56;;;;;;;;;;;;;;;14.04;52.79;98700.78;5352109;32;34254;-69
2022/03/31 01:29:59;;;;;;;17.67;7.90;;;;;;;13.57;54.30;98696.59;5362031;32;34390;-64
2022/03/31 01:33:01;;;;;;;19.92;7.82;;;;;;;13.80;53.59;98695.66;5375093;32;35198;-64
2022/03/31 01:36:06;;;;;;;15.47;7.40;;;;;;;14.04;52.83;98692.88;5362159;32;35103;-65
2022/03/31 01:39:08;;;;;;;17.33;8.30;;;;;;;14.07;52.77;98699.69;5359501;32;46855;-63
2022/03/31 01:42:10;;;;;;;16.13;7.33;;;;;;;13.67;54.06;98699.38;5356451;32;34531;-68
2022/03/31 01:45:14;;;;;;;18.43;8.27;;;;;;;13.20;56.01;98693.28;5374529;32;34078;-68
2022/03/31 01:48:16;;;;;;;21.50;8.60;;;;;;;13.52;55.15;98689.06;5361077;32;34711;-64
2022/03/31 01:51:19;;;;;;;15.27;7.60;;;;;;;13.69;54.34;98695.66;5360662;32;36969;-68
2022/03/31 01:54:21;;;;;;;21.67;8.00;;;;;;;14.04;52.93;98687.59;5374897;32;34589;-63
2022/03/31 01:57:23;;;;;;;22.30;9.33;;;;;;;14.20;52.86;98695.09;5360557;32;34756;-68
2022/03/31 02:00:25;;;;;;;19.20;7.70;;;;;;;14.45;52.14;98687.81;5376352;32;36577;-63
2022/03/31 02:03:27;;;;;;;18.17;7.83;;;;;;;13.53;55.02;98692.53;5360216;32;36319;-69
2022/03/31 02:06:30;;;;;;;20.90;8.40;;;;;;;14.39;52.48;98688.31;5372983;32;35059;-64
2022/03/31 02:09:32;;;;;;;19.93;8.07;;;;;;;13.92;53.80;98679.78;5362331;32;34261;-63
2022/03/31 02:12:35;;;;;;;19.57;8.27;;;;;;;13.93;54.17;98679.66;5360523;32;45301;-63
2022/03/31 02:15:37;;;;;;;20.70;8.50;;;;;;;14.16;53.24;98669.88;5373257;32;34858;-64
2022/03/31 02:18:39;;;;;;;23.83;8.53;;;;;;;14.13;53.12;98664.84;5363311;32;34247;-69
2022/03/31 02:21:41;;;;;;;17.30;7.60;;;;;;;13.73;54.34;98668.06;5375258;32;34953;-68
2022/03/31 02:24:43;;;;;;;21.03;9.00;;;;;;;13.98;53.30;98655.53;5359059;32;34218;-67
2022/03/31 02:27:50;;;;;;;18.73;8.47;;;;;;;14.13;53.24;98653.44;5361523;32;34180;-69
2022/03/31 02:30:52;;;;;;;17.97;8.07;;;;;;;13.60;54.38;98646.22;5363660;32;34696;-70
2022/03/31 02:33:54;;;;;;;20.93;8.27;;;;;;;14.05;54.00;98654.06;5359170;32;33922;-64
2022/03/31 02:36:56;;;;;;;20.53;9.07;;;;;;;14.43;52.51;98645.66;5375213;32;34585;-64
2022/03/31 02:39:58;;;;;;;19.07;9.43;;;;;;;14.38;52.44;98652.28;5339810;32;34525;-69
2022/03/31 02:43:00;;;;;;;20.77;7.60;;;;;;;14.61;51.95;98644.16;5377001;32;34960;-64
2022/03/31 02:46:02;;;;;;;17.20;8.13;;;;;;;14.26;52.88;98648.84;5359864;32;35335;-63
2022/03/31 02:49:04;;;;;;;21.83;8.20;;;;;;;13.92;54.15;98654.22;5372800;32;44597;-70
2022/03/31 02:52:07;;;;;;;19.80;9.17;;;;;;;13.46;55.33;98641.16;5363782;32;35543;-64
2022/03/31 02:55:24;;;;;;;16.30;9.00;;;;;;;13.56;55.35;98650.06;5360062;32;36679;-64
2022/03/31 02:58:26;;;;;;;19.73;8.87;;;;;;;13.60;55.38;98637.47;5376623;32;34083;-64
2022/03/31 03:01:29;;;;;;;14.93;8.07;;;;;;;13.19;56.47;98644.13;5359584;32;34449;-69
2022/03/31 03:04:32;;;;;;;18.98;8.93;;;;;;;12.91;57.99;98640.16;5373629;32;34229;-65
2022/03/31 03:07:34;;;;;;;16.83;8.63;;;;;;;13.32;56.93;98639.63;5355116;32;34488;-67
2022/03/31 03:10:37;;;;;;;20.77;8.80;;;;;;;13.94;54.35;98641.72;5361203;32;34810;-63
2022/03/31 03:13:39;;;;;;;23.12;9.13;;;;;;;12.90;57.95;98647.22;5371144;32;36465;-63
2022/03/31 03:16:41;;;;;;;22.33;8.93;;;;;;;13.90;54.26;98640.28;5354429;32;34999;-67
2022/03/31 03:19:44;;;;;;;14.23;7.55;;;;;;;14.41;52.93;98626.44;5376023;32;34882;-64
2022/03/31 03:22:47;;;;;;;18.93;9.30;;;;;;;13.43;55.65;98639.63;5352304;32;34084;-68
2022/03/31 03:25:50;;;;;;;19.97;8.47;;;;;;;13.36;55.93;98630.50;5371703;32;34254;-65
2022/03/31 03:28:52;;;;;;;17.97;8.20;;;;;;;14.30;52.99;98613.28;5360384;32;34202;-64
2022/03/31 03:31:54;;;;;;;23.40;9.27;;;;;;;14.77;51.26;98619.09;5354802;32;34373;-69
2022/03/31 03:34:56;;;;;;;19.83;9.27;;;;;;;14.30;52.53;98608.84;5374680;32;34639;-64
2022/03/31 03:37:58;;;;;;;18.87;8.33;;;;;;;13.39;55.72;98627.63;5353392;32;34205;-63
2022/03/31 03:41:00;;;;;;;20.23;8.83;;;;;;;14.25;52.98;98620.75;5359501;32;34969;-64
2022/03/31 03:44:03;;;;;;;22.17;8.90;;;;;;;14.20;52.85;98618.47;5358705;32;34837;-64
2022/03/31 03:47:06;;;;;;;24.10;9.18;;;;;;;13.85;54.27;98617.84;5374623;32;44948;-69
2022/03/31 03:50:08;;;;;;;21.70;8.80;;;;;;;14.14;52.74;98615.50;5363093;32;34737;-64
2022/03/31 03:53:11;;;;;;;22.60;8.82;;;;;;;13.24;55.58;98619.13;5358465;32;35792;-64
2022/03/31 03:56:13;;;;;;;22.03;9.20;;;;;;;13.48;55.25;98616.34;5376455;32;34639;-69
2022/03/31 03:59:15;;;;;;;23.40;9.07;;;;;;;14.67;51.56;98597.00;5364471;32;35066;-68
2022/03/31 04:02:17;;;;;;;18.47;8.83;;;;;;;13.35;55.23;98604.25;5358575;32;35179;-64
2022/03/31 04:05:20;;;;;;;25.17;10.07;;;;;;;13.26;55.74;98601.34;5351120;32;34987;-64
2022/03/31 04:08:23;;;;;;;20.52;8.98;;;;;;;13.48;55.22;98594.41;5376959;32;34080;-65
2022/03/31 04:11:26;;;;;;;18.25;8.73;;;;;;;13.64;54.40;98592.22;5363436;32;36040;-64
2022/03/31 04:14:28;;;;;;;18.77;10.20;;;;;;;13.32;54.88;98597.41;5363850;32;35260;-69
2022/03/31 04:17:30;;;;;;;19.23;9.47;;;;;;;13.15;55.47;98592.59;5369526;32;34529;-66
2022/03/31 04:20:32;;;;;;;19.10;9.57;;;;;;;13.43;54.84;98597.41;5358887;32;35167;-64
2022/03/31 04:23:34;;;;;;;20.70;9.87;;;;;;;13.58;54.06;98586.56;5373642;32;45019;-64
2022/03/31 04:26:36;;;;;;;25.07;9.87;;;;;;;13.51;54.27;98594.16;5355959;32;35720;-64
2022/03/31 04:29:39;;;;;;;24.97;10.00;;;;;;;13.74;53.90;98582.59;5376619;32;35496;-68
2022/03/31 04:32:41;;;;;;;18.77;9.43;;;;;;;13.82;52.62;98579.34;5361484;32;35248;-69
2022/03/31 04:35:43;;;;;;;18.57;9.40;;;;;;;14.05;52.25;98583.59;5362881;32;35618;-69
2022/03/31 04:38:45;;;;;;;22.27;10.00;;;;;;;14.51;50.74;98579.81;5355853;32;35221;-64
2022/03/31 04:41:47;;;;;;;18.37;9.53;;;;;;;14.51;50.79;98578.97;5354446;32;34491;-65
2022/03/31 04:44:49;;;;;;;17.37;9.13;;;;;;;15.13;48.42;98576.28;5366161;32;34999;-64
2022/03/31 04:47:51;;;;;;;25.80;10.37;;;;;;;14.68;49.46;98581.00;5361315;32;35005;-68
2022/03/31 04:50:53;;;;;;;22.03;9.90;;;;;;;13.94;51.41;98574.88;5374446;32;35073;-69
2022/03/31 04:53:56;;;;;;;19.27;9.70;;;;;;;13.32;53.28;98576.28;5363625;32;34795;-71
2022/03/31 04:56:58;;;;;;;24.60;9.83;;;;;;;13.90;52.05;98574.25;5362585;32;34849;-69
2022/03/31 05:00:00;;;;;;;23.00;9.80;;;;;;;14.32;50.68;98577.00;5363057;32;34108;-69
2022/03/31 05:03:03;;;;;;;25.35;9.57;;;;;;;13.70;52.68;98577.69;5353250;32;34946;-70
2022/03/31 05:06:06;;;;;;;27.40;10.83;;;;;;;13.86;52.65;98574.66;5371124;32;44975;-69
2022/03/31 05:09:08;;;;;;;27.25;11.05;;;;;;;14.09;52.47;98573.59;5362892;32;34513;-64
2022/03/31 05:12:30;;;;;;;20.93;9.60;;;;;;;13.96;52.72;98572.94;5377951;32;34695;-69
2022/03/31 05:15:33;;;;;;;24.50;10.40;;;;;;;14.32;52.25;98574.34;5323338;32;35283;-65
2022/03/31 05:18:35;;;;;;;21.40;11.65;;;;;;;14.07;52.92;98570.25;5312999;32;46911;-63
2022/03/31 05:21:38;;;;;;;18.47;9.87;;;;;;;13.79;53.10;98574.31;5340447;32;34594;-64
2022/03/31 05:24:40;;;;;;;22.63;10.77;;;;;;;13.94;52.83;98575.69;5323459;32;34495;-64
2022/03/31 05:27:44;;;;;;;18.20;10.25;;;;;;;13.94;52.85;98573.06;5335178;32;35497;-69
2022/03/31 05:30:46;;;;;;;23.67;10.77;;;;;;;13.47;53.93;98576.91;5321997;32;34371;-64
2022/03/31 05:33:48;;;;;;;22.77;11.30;;;;;;;13.96;53.05;98576.41;5329935;32;34500;-64
2022/03/31 05:36:50;;;;;;;25.37;11.00;;;;;;;13.43;54.06;98571.00;5335679;32;35727;-69
2022/03/31 05:39:52;;;;;;;20.97;10.13;;;;;;;14.48;51.20;98574.75;5291385;32;34761;-68
2022/03/31 05:42:55;;;;;;;27.17;11.63;;;;;;;14.71;50.86;98575.50;5339032;32;36039;-63
2022/03/31 05:45:57;;;;;;;24.80;11.17;;;;;;;14.86;50.37;98566.22;5329297;32;35069;-64
2022/03/31 05:48:59;;;;;;;21.80;10.93;;;;;;;13.49;54.51;98570.53;5362436;32;35265;-63
2022/03/31 05:52:02;;;;;;;24.77;11.73;;;;;;;13.94;54.00;98573.06;5362513;32;34192;-70
2022/03/31 05:55:08;;;;;;;20.77;11.10;;;;;;;13.41;55.11;98567.66;5354804;32;44564;-68
2022/03/31 05:58:10;;;;;;;22.43;11.23;;;;;;;13.34;56.44;98573.56;5366409;32;35822;-90
2022/03/31 06:01:13;;;;;;;28.75;11.75;;;;;;;12.85;57.76;98567.63;5358851;32;35457;-73
2022/03/31 06:04:20;;;;;;;26.95;11.98;;;;;;;13.23;57.49;98577.03;5372478;32;34258;-73
2022/03/31 06:07:23;;;;;;;23.13;12.00;;;;;;;13.22;56.82;98568.28;5358290;32;35275;-64
2022/03/31 06:10:25;;;;;;;25.57;11.80;;;;;;;14.36;53.36;98575.75;5373672;32;35875;-65
2022/03/31 06:13:27;;;;;;;21.07;11.00;;;;;;;13.63;56.07;98582.63;5364261;32;34337;-73
2022/03/31 06:16:30;;;;;;;24.03;11.50;;;;;;;14.81;51.08;98584.31;5359481;32;38449;-64
2022/03/31 06:19:33;;;;;;;23.63;11.30;;;;;;;13.97;53.72;98579.88;5376356;32;33908;-63
2022/03/31 06:22:38;;;;;;;26.37;11.97;;;;;;;13.76;54.37;98587.75;5348720;32;44628;-65
2022/03/31 06:25:46;;;;;;;23.43;11.40;;;;;;;14.45;52.56;98579.44;5377256;32;34233;-66
2022/03/31 06:28:48;;;;;;;25.00;12.07;;;;;;;13.65;54.93;98591.25;5353263;32;34937;-79
2022/03/31 06:31:50;;;;;;;23.80;11.77;;;;;;;13.41;57.37;98594.06;5356026;32;34168;-75
2022/03/31 06:34:53;;;;;;;23.10;11.70;;;;;;;14.37;53.93;98593.31;5361161;32;34271;-74
2022/03/31 06:37:55;;;;;;;26.13;12.03;;;;;;;14.17;55.16;98594.09;5338509;32;38029;-64
2022/03/31 06:41:10;;;;;;;21.25;11.23;;;;;;;14.53;53.89;98604.31;5358603;32;34244;-68
2022/03/31 06:44:13;;;;;;;26.47;12.03;;;;;;;14.36;54.33;98610.97;5363033;32;44200;-63
2022/03/31 06:47:16;;;;;;;24.40;12.03;;;;;;;14.58;53.57;98612.69;5374710;32;34180;-66
2022/03/31 06:50:18;;;;;;;24.53;12.17;;;;;;;14.16;55.07;98610.91;5354227;32;35530;-77
2022/03/31 06:53:20;;;;;;;24.63;12.40;;;;;;;14.16;55.75;98610.91;5354276;32;34199;-74
2022/03/31 06:56:23;;;;;;;24.00;11.50;;;;;;;14.75;54.24;98621.87;5360127;32;35172;-63
2022/03/31 06:59:25;;;;;;;28.85;12.73;;;;;;;13.92;57.31;98619.88;5358155;32;35646;-65
2022/03/31 07:02:27;;;;;;;24.60;12.43;;;;;;;14.39;55.09;98615.16;5360821;32;35652;-64
2022/03/31 07:05:29;;;;;;;25.93;12.67;;;;;;;14.30;56.51;98621.22;5359444;32;34193;-63
2022/03/31 07:08:33;;;;;;;26.17;12.77;;;;;;;14.15;57.22;98617.16;5370943;32;34238;-71
2022/03/31 07:11:35;;;;;;;;;;;;;;;13.71;59.70;98616.31;5355132;32;45008;-71
2022/03/31 07:14:41;;;;;;;30.43;12.60;;;;;;;13.58;60.39;98621.72;5349074;32;34124;-70
2022/03/31 07:17:43;;;;;;;27.07;12.57;;;;;;;13.79;60.44;98611.28;5360327;32;34109;-65
2022/03/31 07:20:45;;;;;;;24.27;11.77;;;;;;;13.93;59.32;98608.34;5360087;32;34220;-68
2022/03/31 07:23:48;;;;;;;21.93;12.40;;;;;;;13.87;59.30;98606.22;5348080;32;37076;-67
2022/03/31 07:26:51;;;;;;;23.23;12.00;;;;;;;13.86;58.96;98609.81;5351574;32;34173;-70
2022/03/31 07:29:53;;;;;;;25.13;12.80;;;;;;;14.26;57.96;98606.56;5361317;32;34062;-69
2022/03/31 07:33:00;;;;;;;25.40;12.57;;;;;;;14.06;58.17;98614.31;5367156;32;34657;-68
2022/03/31 07:36:04;;;;;;;27.00;12.27;;;;;;;13.95;59.25;98614.34;5346764;32;35723;-70
2022/03/31 07:39:08;;;;;;;26.58;12.63;;;;;;;13.93;58.67;98603.06;5346693;32;44626;-69
2022/03/31 07:42:10;;;;;;;19.27;11.97;;;;;;;13.85;59.49;98602.00;5346251;32;34279;-71
2022/03/31 07:45:12;;;;;;;26.57;12.77;;;;;;;13.31;61.91;98600.16;5366524;32;34086;-66
2022/03/31 07:48:16;;;;;;;23.92;12.27;;;;;;;12.57;64.57;98608.44;5361997;32;34326;-71
2022/03/31 07:51:18;;;;;;;25.37;12.40;;;;;;;13.13;63.29;98605.03;5370701;32;35702;-66
2022/03/31 07:54:21;;;;;;;30.33;13.43;;;;;;;12.57;66.26;98605.81;5370658;32;35650;-66
2022/03/31 07:57:23;;;;;;;23.03;12.13;;;;;;;12.64;66.66;98593.84;5364620;32;35544;-67
2022/03/31 08:00:25;;;;;;;28.73;13.13;;;;;;;13.50;63.11;98597.75;5363090;32;34561;-67
2022/03/31 08:03:27;;;;;;;28.40;14.53;;;;;;;12.38;68.92;98605.50;5364685;32;35435;-77
2022/03/31 08:06:30;;;;;;;23.30;14.20;;;;;;;12.79;67.18;98612.91;5370021;32;36269;-74
2022/03/31 08:09:32;;;;;;;27.03;13.77;;;;;;;13.30;66.39;98609.03;5359066;32;35507;-71
2022/03/31 08:12:35;;;;;;;27.83;13.57;;;;;;;13.23;67.30;98613.97;5356937;32;44322;-67
2022/03/31 08:15:38;;;;;;;22.33;13.27;;;;;;;13.87;63.16;98603.56;5350253;32;34582;-70
2022/03/31 08:18:40;;;;;;;24.83;13.47;;;;;;;13.73;63.10;98598.56;5356863;32;35369;-66
2022/03/31 08:21:44;;;;;;;29.30;14.73;;;;;;;13.66;64.07;98587.66;5358162;32;34191;-75
2022/03/31 08:24:46;;;;;;;30.53;15.90;;;;;;;12.98;69.61;98585.97;5347190;32;34054;-65
2022/03/31 08:27:49;;;;;;;26.83;14.37;;;;;;;12.72;70.71;98586.19;5365591;32;35728;-74
2022/03/31 08:30:53;;;;;;;30.87;15.67;;;;;;;12.09;71.12;98581.31;5360419;32;35477;-65
2022/03/31 08:33:56;;;;;;;34.90;14.80;;;;;;;12.67;71.02;98571.66;5370053;32;35224;-84
2022/03/31 08:36:58;;;;;;;30.00;16.33;;;;;;;13.16;71.11;98560.81;5373765;32;34127;-66
2022/03/31 08:40:00;;;;;;;33.20;16.90;;;;;;;13.28;71.19;98553.78;5346043;32;35267;-65
2022/03/31 08:43:03;;;;;;;28.43;16.33;;;;;;;12.44;76.14;98560.25;5375666;32;34178;-65
2022/03/31 08:46:06;;;;;;;26.27;15.77;;;;;;;12.91;72.06;98551.34;5361794;32;44361;-66
2022/03/31 08:49:09;;;;;;;28.10;14.37;;;;;;;13.23;72.20;98553.28;5372509;32;34098;-66
2022/03/31 08:52:12;;;;;;;27.50;14.48;;;;;;;12.61;73.15;98554.53;5363867;32;35264;-79
2022/03/31 08:55:16;;;;;;;33.60;15.10;;;;;;;11.70;76.20;98554.28;5364434;32;35198;-66
2022/03/31 08:58:19;;;;;;;34.30;15.73;;;;;;;12.37;75.10;98543.25;5370481;32;35990;-66
2022/03/31 09:01:21;;;;;;;30.20;15.67;;;;;;;13.07;71.32;98547.50;5347323;32;34400;-73
2022/03/31 09:04:24;;;;;;;27.07;15.63;;;;;;;13.00;72.20;98547.97;5366746;32;36125;-63
2022/03/31 09:07:27;;;;;;;31.42;16.02;;;;;;;12.33;73.50;98552.31;5345454;32;34186;-64
2022/03/31 09:10:37;;;;;;;29.70;14.97;;;;;;;12.51;74.71;98542.19;5369397;32;34138;-64
2022/03/31 09:13:40;;;;;;;28.13;15.97;;;;;;;11.90;76.49;98527.38;5363313;32;44441;-75
2022/03/31 09:16:44;;;;;;;29.73;16.75;;;;;;;12.68;75.29;98520.63;5359027;32;35256;-74
2022/03/31 09:19:46;;;;;;;31.73;16.23;;;;;;;12.78;73.35;98528.69;5370547;32;35902;-74
2022/03/31 09:22:50;;;;;;;29.17;14.27;;;;;;;12.76;74.43;98527.97;5360523;32;34204;-74
2022/03/31 09:25:53;;;;;;;29.35;13.18;;;;;;;12.33;74.17;98518.91;5371624;32;33847;-71
2022/03/31 09:28:55;;;;;;;28.53;14.43;;;;;;;11.96;76.05;98520.00;5363233;32;34151;-65
2022/03/31 09:32:12;;;;;;;26.17;13.10;;;;;;;12.36;75.18;98509.94;5360877;32;34347;-66
2022/03/31 09:35:18;;;;;;;29.77;14.37;;;;;;;12.14;76.77;98508.09;5373069;32;35173;-72
2022/03/31 09:38:20;;;;;;;30.47;13.97;;;;;;;11.97;78.25;98498.81;5345141;32;33959;-73
2022/03/31 09:41:30;;;;;;;29.60;13.87;;;;;;;12.72;75.23;98506.28;5350554;32;34117;-75
2022/03/31 09:44:33;;;;;;;26.47;13.37;;;;;;;13.79;69.45;98500.37;5352166;32;34104;-71
2022/03/31 09:47:47;;;;;;;32.40;15.30;;;;;;;13.07;72.95;98495.59;5359018;32;43188;-69
2022/03/31 09:50:50;;;;;;;28.87;15.07;;;;;;;12.42;76.36;98497.13;5365506;32;34793;-70
2022/03/31 09:53:53;;;;;;;28.90;14.77;;;;;;;13.46;72.43;98486.34;5344190;32;35276;-67
2022/03/31 09:56:56;;;;;;;;;;;;;;;12.59;75.63;98482.66;5355754;32;33960;-70
2022/03/31 09:59:59;;;;;;;26.70;14.43;;;;;;;12.45;75.41;98481.09;5360223;32;35413;-72
2022/03/31 10:03:05;;;;;;;27.83;14.23;;;;;;;12.85;73.32;98480.62;5364191;32;33963;-66
2022/03/31 10:06:13;;;;;;;28.93;14.60;;;;;;;12.76;74.48;98478.72;5355527;32;44748;-68
2022/03/31 10:09:15;;;;;;;26.03;15.60;;;;;;;12.72;75.76;98461.47;5358611;32;35267;-69
2022/03/31 10:12:29;;;;;;;32.90;15.07;;;;;;;13.32;73.60;98456.72;5358560;32;34893;-69
2022/03/31 10:15:34;;;;;;;29.97;15.77;;;;;;;12.73;77.35;98450.78;5357400;32;34180;-69
2022/03/31 10:18:36;;;;;;;28.50;15.00;;;;;;;13.27;73.93;98455.31;5363739;32;44661;-64
2022/03/31 10:21:38;;;;;;;27.67;15.67;;;;;;;12.92;73.91;98452.81;5352892;32;33439;-67
2022/03/31 10:24:41;;;;;;;30.73;16.47;;;;;;;12.64;77.51;98450.69;5367430;32;34170;-68
2022/03/31 10:27:50;;;;;;;27.57;16.13;;;;;;;12.25;78.84;98463.34;5360830;32;34109;-71
2022/03/31 10:30:53;;;;;;;28.27;14.20;;;;;;;12.40;79.86;98464.78;5362261;32;33976;-66
2022/03/31 10:33:56;;;;;;;23.08;14.23;;;;;;;12.75;76.21;98458.56;5372406;32;35630;-69
2022/03/31 10:37:05;;;;;;;25.13;15.17;;;;;;;13.46;72.76;98459.94;5360730;32;34249;-66
2022/03/31 10:40:10;;;;;;;25.13;14.97;;;;;;;12.16;79.32;98461.41;5352378;32;44979;-69
2022/03/31 10:43:28;;;;;;;28.57;14.87;;;;;;;12.18;81.00;98448.97;5342642;32;35745;-74
2022/03/31 10:46:32;;;;;;;29.27;16.00;;;;;;;12.31;80.28;98441.81;5355734;32;34210;-62
2022/03/31 10:49:35;;;;;;;29.97;15.23;;;;;;;12.22;80.25;98439.88;5362335;32;44439;-68
2022/03/31 10:52:38;;;;;;;30.08;16.20;;;;;;;12.08;82.84;98434.81;5364657;32;34107;-71
2022/03/31 10:55:49;;;;;;;27.97;15.17;;;;;;;11.77;85.13;98431.81;5375010;32;33824;-74
2022/03/31 10:59:02;;;;;;;23.90;14.30;;;;;;;12.68;78.09;98425.75;5354502;32;35270;-75
2022/03/31 11:02:21;;;;;;;28.40;15.30;;;;;;;12.58;78.96;98416.91;5364248;32;43290;-62
2022/03/31 11:05:28;;;;;;;23.07;14.37;;;;;;;13.00;76.87;98418.75;5376505;32;33868;-62
2022/03/31 11:08:43;;;;;;;27.77;15.90;;;;;;;12.39;77.27;98417.50;5359384;32;35267;-62
2022/03/31 11:11:49;;;;;;;24.20;14.93;;;;;;;12.43;79.74;98416.31;5373883;32;34271;-62
2022/03/31 11:14:56;;;;;;;24.40;15.33;;;;;;;12.66;77.74;98404.78;5347786;32;36613;-62
2022/03/31 11:18:01;;;;;;;30.47;15.47;;;;;;;12.38;77.44;98419.31;5354083;32;33952;-73
2022/03/31 11:21:04;;;;;;;25.80;14.90;;;;;;;12.29;77.74;98422.63;5367033;32;46326;-73
2022/03/31 11:24:06;;;;;;;28.23;16.83;;;;;;;12.95;75.26;98412.19;5356285;32;34117;-61
2022/03/31 11:27:09;;;;;;;37.03;22.95;;;;;;;12.26;77.06;98406.25;5369267;32;35414;-68
2022/03/31 11:30:14;;;;;;;22.33;12.60;;;;;;;12.40;78.66;98408.63;5359851;32;35815;-62
2022/03/31 11:33:16;;;;;;;26.93;13.60;;;;;;;13.35;71.55;98394.00;5370920;32;34840;-63
2022/03/31 11:36:18;;;;;;;24.87;13.20;;;;;;;13.41;71.04;98390.88;5358059;32;34171;-79
2022/03/31 11:39:28;;;;;;;23.47;13.27;;;;;;;12.48;75.55;98393.06;5346343;32;35684;-71
2022/03/31 11:42:30;;;;;;;22.33;14.70;;;;;;;12.87;74.81;98386.44;5370648;32;34117;-71
2022/03/31 11:45:38;;;;;;;25.47;14.00;;;;;;;12.08;78.37;98384.78;5356811;32;35674;-76
2022/03/31 11:48:41;;;;;;;27.13;15.87;;;;;;;12.29;76.73;98383.13;5365282;32;44843;-71
2022/03/31 11:52:00;;;;;;;29.87;14.93;;;;;;;12.22;77.06;98368.75;5358234;32;35286;-73
2022/03/31 11:55:06;;;;;;;25.70;14.17;;;;;;;12.50;74.98;98369.25;5369228;32;34150;-74
2022/03/31 11:58:08;;;;;;;33.80;14.90;;;;;;;12.83;76.16;98366.56;5367421;32;44616;-69
2022/03/31 12:01:11;;;;;;;28.73;15.43;;;;;;;12.68;77.53;98373.03;5356080;32;34329;-72
2022/03/31 12:04:18;;;;;;;28.58;14.50;;;;;;;12.68;77.67;98367.75;5363046;32;34133;-66
2022/03/31 12:07:21;;;;;;;22.17;14.10;;;;;;;12.57;77.39;98365.16;5366797;32;34390;-64
2022/03/31 12:10:23;;;;;;;24.87;15.17;;;;;;;12.61;75.05;98345.50;5376805;32;34343;-64
2022/03/31 12:13:27;;;;;;;34.85;15.43;;;;;;;12.22;79.06;98342.41;5361035;32;35313;-67
2022/03/31 12:16:50;;;;;;;28.33;16.07;;;;;;;12.52;78.58;98327.78;5364866;32;35624;-72
2022/03/31 12:19:53;;;;;;;26.53;15.03;;;;;;;12.69;78.09;98295.66;5359014;32;35771;-74
2022/03/31 12:22:55;;;;;;;29.93;15.43;;;;;;;12.23;78.86;98306.38;5367001;32;35762;-72
2022/03/31 12:26:11;;;;;;;25.35;14.63;;;;;;;12.71;75.46;98306.91;5372986;32;34231;-68
2022/03/31 12:29:17;;;;;;;30.37;15.97;;;;;;;12.08;79.29;98305.78;5360947;32;42554;-72
2022/03/31 12:32:19;;;;;;;30.47;15.07;;;;;;;11.76;80.91;98317.00;5369984;32;35163;-63
2022/03/31 12:35:30;;;;;;;25.97;15.33;;;;;;;11.74;81.68;98312.81;5358240;32;36762;-63
2022/03/31 12:38:49;;;;;;;28.50;15.83;;;;;;;12.38;79.14;98306.03;5348310;32;33835;-64
2022/03/31 12:41:56;;;;;;;27.53;16.37;;;;;;;12.03;79.67;98306.16;5339768;32;34206;-68
2022/03/31 12:44:59;;;;;;;27.00;15.70;;;;;;;12.26;78.42;98311.44;5360504;32;34202;-67
2022/03/31 12:48:07;;;;;;;30.17;18.07;;;;;;;12.05;79.31;98308.69;5364822;32;34208;-74
2022/03/31 12:51:09;;;;;;;26.97;16.37;;;;;;;12.41;79.81;98311.03;5367885;32;44901;-68
2022/03/31 12:54:24;;;;;;;23.93;15.67;;;;;;;12.59;78.05;98310.53;5358997;32;34520;-66
2022/03/31 12:57:27;;;;;;;27.07;15.70;;;;;;;12.78;78.38;98302.81;5364923;32;34260;-67
2022/03/31 13:00:33;;;;;;;24.70;14.70;;;;;;;12.22;80.22;98302.91;5353565;32;35293;-69
2022/03/31 13:03:40;;;;;;;23.70;14.07;;;;;;;11.74;80.71;98303.13;5348382;32;43460;-72
2022/03/31 13:06:42;;;;;;;22.77;13.83;;;;;;;11.52;78.72;98303.06;5366244;32;34203;-61
2022/03/31 13:09:46;;;;;;;27.87;14.43;;;;;;;11.98;78.22;98302.19;5363694;32;35194;-67
2022/03/31 13:12:49;;;;;;;28.57;15.03;;;;;;;12.00;81.35;98308.19;5375266;32;35871;-69
2022/03/31 13:15:52;;;;;;;25.73;13.60;;;;;;;11.77;80.52;98300.25;5361796;32;35250;-69
2022/03/31 13:18:54;;;;;;;24.90;14.97;;;;;;;12.03;76.57;98300.03;5369989;32;35072;-70
2022/03/31 13:21:57;;;;;;;22.10;14.33;;;;;;;12.04;76.58;98291.19;5364052;32;33957;-69
2022/03/31 13:24:59;;;;;;;26.53;14.97;;;;;;;12.08;78.67;98296.09;5355407;32;161849;-67
2022/03/31 13:28:01;;;;;;;26.00;15.60;;;;;;;11.77;78.99;98294.13;5361436;32;35318;-70
2022/03/31 13:31:04;;;;;;;26.27;14.90;;;;;;;12.09;79.64;98294.31;5365298;32;34095;-73
2022/03/31 13:34:08;;;;;;;30.33;18.52;;;;;;;12.44;76.82;98281.81;5372694;32;44555;-75
2022/03/31 13:37:10;;;;;;;27.60;15.70;;;;;;;11.86;79.35;98273.25;5364245;32;34021;-86
2022/03/31 13:40:13;;;;;;;28.20;16.20;;;;;;;11.41;80.59;98274.12;5350323;32;35403;-73
2022/03/31 13:43:15;;;;;;;32.60;17.30;;;;;;;11.83;77.46;98268.22;5366381;32;35266;-73
2022/03/31 13:46:17;;;;;;;28.17;17.50;;;;;;;12.11;79.00;98264.28;5375961;32;34629;-73
2022/03/31 13:49:21;;;;;;;27.92;16.87;;;;;;;11.93;78.98;98268.34;5368222;32;35008;-75
2022/03/31 13:52:23;;;;;;;;;;;;;;;11.53;81.55;98260.88;5359186;32;33201;-74
2022/03/31 13:55:25;;;;;;;39.97;19.87;;;;;;;11.77;80.00;98249.41;5374301;32;34388;-68
2022/03/31 14:01:50;;;;;;;33.03;18.90;;;;;;;11.29;81.01;98237.28;5370404;32;34092;-68
2022/03/31 14:04:52;;;;;;;31.50;18.73;;;;;;;12.19;78.75;98232.06;5359624;32;35043;-65
2022/03/31 14:07:56;;;;;;;36.70;19.47;;;;;;;12.79;74.62;98224.56;5352088;32;35561;-65
2022/03/31 14:10:59;;;;;;;35.50;19.90;;;;;;;12.38;77.71;98218.25;5369509;32;35695;-67
2022/03/31 14:14:03;;;;;;;35.70;20.17;;;;;;;12.21;79.65;98216.97;5357856;32;34760;-66